Flight Track Log - Related Links

Times and Time Zones

All times are in EDT time to prevent confusion due to time zone crossing. See the N700YN flight status page for this flight to view local times or setup timezone preferences in your user account.

Time Position Orientation Groundspeed Altitude Reporting Facility
EDT Latitude Longitude Course Direction KTS MPH feet Rate Location/Type
Tue 12:57:24 PM 44.8000 -93.4167 200° South 125 144 2,500  Level Minneapolis TRACON
Tue 12:58:24 PM 44.7667 -93.4333 200° South 128 147 3,000 336 Climbing Minneapolis TRACON
Tue 12:59:11 PM 44.7350 -93.4200 163° South 154 177 3,100  Climbing Minneapolis Center
Tue 01:00:13 PM 44.7150 -93.3492 112° Southeast 199 229 3,000 629 Descending Minneapolis Center
Tue 01:01:15 PM 44.6947 -93.2644 109° East 192 221 4,400 1,355 Climbing Minneapolis Center
Tue 01:02:17 PM 44.6839 -93.2039 104° East 167 192 5,800 1,210 Climbing Minneapolis Center
Tue 01:03:19 PM 44.6714 -93.1397 105° East 172 198 6,900 1,161 Climbing Minneapolis Center
Tue 01:04:21 PM 44.6647 -93.0664 97° East 191 220 8,200 1,210 Climbing Minneapolis Center
Tue 01:05:23 PM 44.6533 -92.9756 100° East 198 228 9,400 1,152 Climbing Minneapolis Center
Tue 01:06:26 PM 44.6419 -92.8928 101° East 213 245 10,600 1,152 Climbing Minneapolis Center
Tue 01:07:28 PM 44.6267 -92.8153 105° East 209 241 11,800 1,161 Climbing Minneapolis Center
Tue 01:08:30 PM 44.5997 -92.7408 117° Southeast 212 244 13,000 1,065 Climbing Minneapolis Center
Tue 01:09:32 PM 44.5750 -92.6639 114° Southeast 218 251 14,000 1,113 Climbing Minneapolis Center
Tue 01:10:34 PM 44.5433 -92.5711 116° Southeast 221 254 15,300 1,161 Climbing Minneapolis Center
Tue 01:11:36 PM 44.5153 -92.4931 117° Southeast 225 259 16,400 968 Climbing Minneapolis Center
Tue 01:12:38 PM 44.4897 -92.4142 114° Southeast 223 257 17,300 871 Climbing Minneapolis Center
Tue 01:13:40 PM 44.4636 -92.3319 114° Southeast 231 266 18,200 871 Climbing Minneapolis Center
Tue 01:14:42 PM 44.4350 -92.2506 116° Southeast 235 270 19,100 968 Climbing Minneapolis Center
Tue 01:15:44 PM 44.4058 -92.1622 115° Southeast 246 283 20,200 1,113 Climbing Minneapolis Center
Tue 01:16:46 PM 44.3697 -92.0567 116° Southeast 252 290 21,400 968 Climbing Minneapolis Center
Tue 01:17:48 PM 44.3375 -91.9658 116° Southeast 259 298 22,200 816 Climbing Minneapolis Center
Tue 01:18:51 PM 44.3039 -91.8703 116° Southeast 269 310 23,100 864 Climbing Minneapolis Center
Tue 01:19:53 PM 44.2714 -91.7733 115° Southeast 274 315 24,000 774 Climbing Minneapolis Center
Tue 01:20:55 PM 44.2367 -91.6728 116° Southeast 284 327 24,700 677 Climbing Minneapolis Center
Tue 01:21:57 PM 44.2017 -91.5711 116° Southeast 290 334 25,400 823 Climbing Minneapolis Center
Tue 01:22:59 PM 44.1572 -91.4472 117° Southeast 296 341 26,400 774 Climbing Minneapolis Center
Tue 01:24:01 PM 44.1217 -91.3447 116° Southeast 296 341 27,000 290 Climbing Minneapolis Center
Tue 01:25:03 PM 44.0869 -91.2453 116° Southeast 302 348 27,000  Level Minneapolis Center
Tue 01:26:05 PM 44.0475 -91.1325 116° Southeast 318 366 27,000  Level Minneapolis Center
Tue 01:27:07 PM 43.9972 -90.9914 116° Southeast 335 386 27,000  Level Minneapolis Center
Tue 01:28:09 PM 43.9550 -90.8703 116° Southeast 348 400 27,000  Level Minneapolis Center
Tue 01:29:11 PM 43.9128 -90.7519 116° Southeast 344 396 27,000  Level Minneapolis Center
Tue 01:30:13 PM 43.8706 -90.6339 116° Southeast 343 395 27,000  Level Minneapolis Center
Tue 01:30:50 PM 43.8444 -90.5669 118° Southeast 343 395 27,000  Level Chicago Center
Tue 01:31:52 PM 43.8017 -90.4497 117° Southeast 343 395 27,000  Level Chicago Center
Tue 01:32:54 PM 43.7508 -90.3081 116° Southeast 344 396 27,000  Level Chicago Center
Tue 01:33:56 PM 43.7081 -90.1900 117° Southeast 345 397 27,000  Level Chicago Center
Tue 01:34:58 PM 43.6642 -90.0714 117° Southeast 348 400 27,000  Level Chicago Center
Tue 01:36:00 PM 43.6211 -89.9528 117° Southeast 348 400 27,000  Level Chicago Center
Tue 01:37:02 PM 43.5769 -89.8347 117° Southeast 348 400 27,000  Level Chicago Center
Tue 01:38:04 PM 43.5372 -89.6858 110° East 354 407 27,000  Level Chicago Center
Tue 01:39:07 PM 43.5181 -89.5536 101° East 354 407 27,000  Level Chicago Center
Tue 01:40:09 PM 43.4992 -89.4233 101° East 352 405 27,000  Level Chicago Center
Tue 01:41:11 PM 43.4794 -89.2914 102° East 352 405 27,000  Level Chicago Center
Tue 01:42:13 PM 43.4550 -89.1586 104° East 356 410 27,000  Level Chicago Center
Tue 01:43:15 PM 43.4253 -88.9953 104° East 365 420 27,000  Level Chicago Center
Tue 01:44:17 PM 43.4047 -88.8633 102° East 357 411 27,000  Level Chicago Center
Tue 01:45:19 PM 43.3803 -88.7192 103° East 359 413 27,000  Level Chicago Center
Tue 01:46:21 PM 43.3572 -88.5864 103° East 359 413 27,000  Level Chicago Center
Tue 01:47:23 PM 43.3361 -88.4597 103° East 362 417 27,000  Level Chicago Center
Tue 01:48:25 PM 43.3133 -88.3272 103° East 360 414 27,000  Level Chicago Center
Tue 01:49:28 PM 43.2850 -88.1689 104° East 357 411 27,000  Level Chicago Center
Tue 01:50:30 PM 43.2628 -88.0356 103° East 360 414 27,000  Level Chicago Center
Tue 01:51:32 PM 43.2400 -87.9036 103° East 359 413 27,000  Level Chicago Center
Tue 01:52:34 PM 43.2156 -87.7711 104° East 359 413 27,000  Level Chicago Center
Tue 01:53:36 PM 43.1925 -87.6386 103° East 360 414 27,000  Level Chicago Center
Tue 01:54:38 PM 43.1689 -87.5047 104° East 362 417 27,000  Level Chicago Center
Tue 01:55:40 PM 43.1392 -87.3450 104° East 362 417 27,000  Level Chicago Center
Tue 01:56:42 PM 43.1156 -87.2136 104° East 358 412 27,000  Level Chicago Center
Tue 01:57:44 PM 43.0922 -87.0806 103° East 362 417 27,000  Level Chicago Center
Tue 01:58:47 PM 43.0667 -86.9481 105° East 362 417 27,000  Level Chicago Center
Tue 01:59:49 PM 43.0419 -86.8144 104° East 362 417 27,000  Level Chicago Center
Tue 02:00:51 PM 43.0128 -86.6558 104° East 360 414 27,000  Level Chicago Center
Tue 02:01:53 PM 42.9872 -86.5244 105° East 361 415 27,000  Level Chicago Center
Tue 02:02:56 PM 42.9622 -86.3922 104° East 362 417 27,000  Level Chicago Center
Tue 02:03:58 PM 42.9369 -86.2603 105° East 362 417 27,000  Level Chicago Center
Tue 02:05:00 PM 42.9114 -86.1286 105° East 364 419 27,000  Level Chicago Center
Tue 02:06:02 PM 42.8806 -85.9711 105° East 366 421 27,000  Level Chicago Center
Tue 02:07:04 PM 42.8547 -85.8383 105° East 368 423 27,000  Level Chicago Center
Tue 02:08:06 PM 42.8289 -85.7053 105° East 368 423 27,000  Level Chicago Center
Tue 02:09:08 PM 42.8019 -85.5717 105° East 367 422 27,000  Level Chicago Center
Tue 02:10:10 PM 42.7567 -85.4175 112° Southeast 366 421 27,000  Level Chicago Center
Tue 02:11:12 PM 42.7061 -85.2967 120° Southeast 368 423 27,000  Level Chicago Center
Tue 02:12:14 PM 42.6569 -85.1767 119° Southeast 365 420 27,000  Level Chicago Center
Tue 02:13:17 PM 42.6078 -85.0550 119° Southeast 367 422 27,000  Level Chicago Center
Tue 02:14:19 PM 42.5572 -84.9339 120° Southeast 368 423 27,000  Level Chicago Center
Tue 02:15:21 PM 42.5078 -84.8125 119° Southeast 367 422 27,000  Level Chicago Center
Tue 02:16:23 PM 42.4472 -84.6678 120° Southeast 368 423 27,000  Level Chicago Center
Tue 02:17:25 PM 42.3969 -84.5472 119° Southeast 369 425 27,000  Level Chicago Center
Tue 02:18:27 PM 42.3478 -84.4278 119° Southeast 367 422 27,000  Level Chicago Center
Tue 02:19:29 PM 42.2978 -84.3083 119° Southeast 366 421 27,000  Level Chicago Center
Tue 02:20:31 PM 42.2469 -84.1892 120° Southeast 367 422 27,000  Level Chicago Center
Tue 02:21:34 PM 42.1958 -84.0708 120° Southeast 367 422 27,000 -192 Level Chicago Center
Tue 02:22:36 PM 42.1356 -83.9269 119° Southeast 369 425 26,600 -629 Descending Chicago Center
Tue 02:23:38 PM 42.0819 -83.8075 121° Southeast 374 430 25,700 -919 Descending Chicago Center
Tue 02:24:40 PM 42.0331 -83.6906 119° Southeast 364 419 24,700 -699 Descending Chicago Center
Tue 02:26:04 PM 41.9664 -83.5367 120° Southeast 342 394 24,000 -329 Descending Cleveland Center
Tue 02:27:06 PM 41.9206 -83.4339 121° Southeast 322 371 23,900 -532 Descending Cleveland Center
Tue 02:28:08 PM 41.8744 -83.3250 120° Southeast 328 377 22,900 -919 Descending Cleveland Center
Tue 02:29:10 PM 41.8278 -83.2181 120° Southeast 335 386 22,000 -871 Descending Cleveland Center
Tue 02:30:12 PM 41.7697 -83.0858 120° Southeast 342 394 21,100 -484 Descending Cleveland Center
Tue 02:31:14 PM 41.7256 -82.9822 120° Southeast 324 373 21,000 -48 Descending Cleveland Center
Tue 02:32:16 PM 41.6831 -82.8881 121° Southeast 302 348 21,000  Level Cleveland Center
Tue 02:33:18 PM 41.6408 -82.7900 120° Southeast 300 345 21,000  Level Cleveland Center
Tue 02:34:20 PM 41.5961 -82.6936 122° Southeast 302 348 21,000  Level Cleveland Center
Tue 02:35:23 PM 41.5525 -82.5933 120° Southeast 308 354 21,000  Level Cleveland Center
Tue 02:36:25 PM 41.4992 -82.4756 121° Southeast 314 361 21,000  Level Cleveland Center
Tue 02:37:27 PM 41.4536 -82.3728 121° Southeast 318 366 21,000 -194 Level Cleveland Center
Tue 02:38:29 PM 41.4083 -82.2714 121° Southeast 318 366 20,600 -677 Descending Cleveland Center
Tue 02:39:31 PM 41.3600 -82.1661 121° Southeast 328 377 19,600 -1,065 Descending Cleveland Center
Tue 02:40:33 PM 41.3272 -82.0422 109° East 340 391 18,400 -1,016 Descending Cleveland Center
Tue 02:41:35 PM 41.2961 -81.9261 110° East 334 384 17,500 -1,016 Descending Cleveland Center
Tue 02:42:37 PM 41.2667 -81.8114 109° East 330 380 16,300 -1,161 Descending Cleveland Center
Tue 02:43:39 PM 41.2367 -81.6994 110° East 323 372 15,100 -1,258 Descending Cleveland Center
Tue 02:44:41 PM 41.2022 -81.5681 109° East 315 362 13,700 -1,016 Descending Cleveland Center
Tue 02:45:43 PM 41.1736 -81.4614 110° East 309 356 13,000 -823 Descending Cleveland Center
Tue 02:46:45 PM 41.1486 -81.3686 110° East 295 339 12,000 -1,161 Descending Cleveland Center
Tue 02:47:47 PM 41.1156 -81.2450 110° East 302 348 10,600 -1,296 Descending Cleveland Center
Tue 02:48:50 PM 41.0878 -81.1450 110° East 289 333 9,300 -768 Descending Cleveland Center
Tue 02:49:52 PM 41.0656 -81.0600 109° East 247 284 9,000 -823 Descending Cleveland Center
Tue 02:50:54 PM 41.0425 -80.9725 109° East 233 268 7,600 -1,113 Descending Cleveland Center
Tue 02:51:56 PM 41.0228 -80.9008 110° East 235 270 6,700 677 Descending Cleveland Center
Tue 02:52:58 PM 40.8644 -80.8306 161° South 430 495 9,000 1,113 Climbing Cleveland Center
Tue 02:54:00 PM 40.3486 -80.8178 179° South 751 864 9,000  Level Cleveland Center

Login

Don't have an account? Register now (free) for customized features, flight alerts, and more!